Time;durP1;ratioP1;P1;durP2;ratioP2;P2;SDS_P1;SDS_P2;PMS_P1;PMS_P2;Temp;Humidity;BMP_temperature;BMP_pressure;BME280_temperature;BME280_humidity;BME280_pressure;Samples;Min_cycle;Max_cycle;Signal;HPM_P1;HPM_P2
2023/06/22 00:00:58;;;;;;;36.55;32.63;;;17.90;87.80;;;;;;5132677;28;20050;-78
2023/06/22 00:03:25;;;;;;;36.80;32.83;;;17.90;87.80;;;;;;5098820;28;20110;-79
2023/06/22 00:05:51;;;;;;;36.40;32.10;;;17.90;88.10;;;;;;5115471;28;20109;-79
2023/06/22 00:08:18;;;;;;;39.70;34.50;;;17.90;88.00;;;;;;5132510;28;20047;-79
2023/06/22 00:10:45;;;;;;;46.47;37.97;;;17.90;88.00;;;;;;5098979;28;20475;-79
2023/06/22 00:13:12;;;;;;;37.95;33.83;;;17.90;88.10;;;;;;5132765;28;20039;-79
2023/06/22 00:15:39;;;;;;;35.92;32.17;;;17.90;88.30;;;;;;5115822;28;20394;-79
2023/06/22 00:18:06;;;;;;;35.90;32.10;;;17.90;88.60;;;;;;5132624;28;20130;-78
2023/06/22 00:20:32;;;;;;;27.63;23.13;;;17.80;88.50;;;;;;5135288;27;20092;-79
2023/06/22 00:22:59;;;;;;;30.38;26.40;;;17.70;88.40;;;;;;5136675;27;20043;-79
2023/06/22 00:25:25;;;;;;;28.15;25.20;;;17.70;88.40;;;;;;5118361;27;20421;-79
2023/06/22 00:27:51;;;;;;;24.00;21.63;;;17.60;88.40;;;;;;5098715;28;20050;-79
2023/06/22 00:30:18;;;;;;;26.33;23.73;;;17.60;88.60;;;;;;5099006;28;20122;-79
2023/06/22 00:32:45;;;;;;;24.63;22.33;;;17.60;88.70;;;;;;5082057;28;20040;-79
2023/06/22 00:35:12;;;;;;;25.80;23.23;;;17.50;88.80;;;;;;5098865;28;20486;-79
2023/06/22 00:37:41;;;;;;;25.60;23.10;;;17.60;88.60;;;;;;5115672;28;20471;-79
2023/06/22 00:40:11;;;;;;;27.65;24.80;;;17.60;88.50;;;;;;5098796;28;20044;-79
2023/06/22 00:42:38;;;;;;;25.10;22.60;;;17.50;88.50;;;;;;5082864;28;20108;-79
2023/06/22 00:45:06;;;;;;;25.10;22.65;;;17.50;88.70;;;;;;5098869;28;20054;-79
2023/06/22 00:47:33;;;;;;;23.42;21.42;;;17.50;88.60;;;;;;5098807;28;20043;-79
2023/06/22 00:50:00;;;;;;;24.70;22.35;;;17.50;88.70;;;;;;5098264;28;20036;-79
2023/06/22 00:52:29;;;;;;;26.52;23.88;;;17.40;88.70;;;;;;5115787;28;20046;-79
2023/06/22 00:54:56;;;;;;;26.70;24.17;;;17.40;88.90;;;;;;5115828;28;20055;-80
2023/06/22 00:57:25;;;;;;;25.48;23.08;;;17.50;89.00;;;;;;5115898;28;20039;-78
2023/06/22 00:59:51;;;;;;;22.45;20.17;;;17.40;89.00;;;;;;5098349;28;20035;-77
2023/06/22 01:02:17;;;;;;;24.88;22.50;;;17.40;89.00;;;;;;5064803;28;20537;-77
2023/06/22 01:04:42;;;;;;;25.90;23.48;;;17.40;88.90;;;;;;5115143;28;20031;-78
2023/06/22 01:07:30;;;;;;;23.67;21.52;;;17.30;88.80;;;;;;5098088;28;20507;-78
2023/06/22 01:10:16;;;;;;;27.27;24.55;;;17.40;89.00;;;;;;5115022;28;20043;-78
2023/06/22 01:12:52;;;;;;;25.05;22.75;;;17.30;89.00;;;;;;5114833;28;20046;-78
2023/06/22 01:15:43;;;;;;;26.00;23.48;;;17.30;88.80;;;;;;5098843;28;20040;-78
2023/06/22 01:18:10;;;;;;;26.15;23.55;;;17.30;88.90;;;;;;5097719;28;20075;-78
2023/06/22 01:20:37;;;;;;;25.50;23.20;;;17.30;89.00;;;;;;5085537;27;20042;-77
2023/06/22 01:23:36;;;;;;;23.88;21.63;;;17.40;89.10;;;;;;5101638;27;20118;-78
2023/06/22 01:26:18;;;;;;;24.92;22.42;;;17.40;89.30;;;;;;5127147;27;20061;-78
2023/06/22 01:28:47;;;;;;;26.70;24.00;;;17.40;89.40;;;;;;5118163;27;20051;-78
2023/06/22 01:31:16;;;;;;;25.55;23.25;;;17.40;89.50;;;;;;5134802;27;20051;-78
2023/06/22 01:33:45;;;;;;;27.05;24.55;;;17.40;89.50;;;;;;5135542;27;20053;-78
2023/06/22 01:36:12;;;;;;;24.58;22.25;;;17.40;89.60;;;;;;5135300;27;20039;-78
2023/06/22 01:38:38;;;;;;;27.10;24.42;;;17.40;89.80;;;;;;5118023;27;20111;-77
2023/06/22 01:41:04;;;;;;;23.55;21.45;;;17.50;89.90;;;;;;5135144;27;20071;-78
2023/06/22 01:43:30;;;;;;;26.15;23.40;;;17.50;89.90;;;;;;5118026;27;20082;-78
2023/06/22 01:45:58;;;;;;;26.73;24.23;;;17.50;89.80;;;;;;5117763;27;20150;-78
2023/06/22 01:48:25;;;;;;;27.40;24.60;;;17.50;89.90;;;;;;5134562;27;20395;-78
2023/06/22 01:50:52;;;;;;;30.58;27.60;;;17.50;90.00;;;;;;5134625;27;20514;-78
2023/06/22 01:53:18;;;;;;;36.13;32.17;;;17.50;89.80;;;;;;5134996;27;20035;-78
2023/06/22 01:55:43;;;;;;;29.80;26.63;;;17.60;89.80;;;;;;5117230;27;20064;-78
2023/06/22 01:58:09;;;;;;;33.08;29.58;;;17.60;89.90;;;;;;5117521;27;20035;-78
2023/06/22 02:00:40;;;;;;;30.50;27.50;;;17.50;89.90;;;;;;5117360;27;20054;-78
2023/06/22 02:03:12;;;;;;;28.73;25.92;;;17.50;89.80;;;;;;5117291;27;20039;-78
2023/06/22 02:05:45;;;;;;;32.80;28.42;;;17.50;89.70;;;;;;5134851;27;20399;-78
2023/06/22 02:08:35;;;;;;;29.08;26.13;;;17.50;89.70;;;;;;5134385;27;20495;-78
2023/06/22 02:11:02;;;;;;;24.70;22.30;;;17.50;89.80;;;;;;5134363;27;20479;-78
2023/06/22 02:13:28;;;;;;;30.20;27.05;;;17.40;89.80;;;;;;5117403;27;20043;-79
2023/06/22 02:15:54;;;;;;;29.20;26.20;;;17.40;89.80;;;;;;5117460;27;20116;-79
2023/06/22 02:18:20;;;;;;;25.23;22.83;;;17.30;89.80;;;;;;5117464;27;20031;-78
2023/06/22 02:20:46;;;;;;;25.67;23.10;;;17.30;89.70;;;;;;5134411;27;20107;-78
2023/06/22 02:23:11;;;;;;;30.13;27.02;;;17.20;89.70;;;;;;5100419;27;20035;-78
2023/06/22 02:25:37;;;;;;;29.80;26.25;;;17.20;89.70;;;;;;5114084;27;20487;-78
2023/06/22 02:28:04;;;;;;;32.13;28.73;;;17.10;89.80;;;;;;5113014;28;20143;-78
2023/06/22 02:30:29;;;;;;;30.23;26.05;;;17.00;89.90;;;;;;5113481;28;20067;-79
2023/06/22 02:32:58;;;;;;;31.55;28.25;;;17.00;90.00;;;;;;5113273;28;20369;-78
2023/06/22 02:35:31;;;;;;;30.48;27.33;;;16.90;90.00;;;;;;5118810;27;20051;-78
2023/06/22 02:38:01;;;;;;;27.88;25.13;;;16.90;89.90;;;;;;5115061;27;20039;-78
2023/06/22 02:40:29;;;;;;;27.42;24.85;;;17.00;90.00;;;;;;5116533;27;20039;-78
2023/06/22 02:42:54;;;;;;;23.98;21.75;;;17.00;90.00;;;;;;5116103;28;20039;-78
2023/06/22 02:45:20;;;;;;;21.83;19.83;;;16.90;90.00;;;;;;5133812;27;20556;-78
2023/06/22 02:47:47;;;;;;;28.58;25.77;;;16.90;89.90;;;;;;5116824;27;20043;-78
2023/06/22 02:50:13;;;;;;;29.48;26.58;;;16.90;89.90;;;;;;5116801;27;20126;-78
2023/06/22 02:52:39;;;;;;;29.67;26.75;;;16.80;90.00;;;;;;5097979;27;20540;-79
2023/06/22 02:55:07;;;;;;;31.92;25.10;;;16.80;89.90;;;;;;5135203;27;20035;-79
2023/06/22 02:57:33;;;;;;;42.45;19.83;;;16.80;90.00;;;;;;5134611;27;20043;-79
2023/06/22 02:59:59;;;;;;;39.53;23.50;;;16.80;90.00;;;;;;5116622;27;20536;-78
2023/06/22 03:02:26;;;;;;;60.15;24.20;;;16.70;90.00;;;;;;5098869;27;20042;-78
2023/06/22 03:04:53;;;;;;;94.15;27.60;;;16.70;89.90;;;;;;5132112;27;20038;-78
2023/06/22 03:07:19;;;;;;;71.28;27.00;;;16.60;90.00;;;;;;5115319;27;20540;-78
2023/06/22 03:09:45;;;;;;;34.22;23.42;;;16.60;90.10;;;;;;5116108;27;20043;-78
2023/06/22 03:12:11;;;;;;;77.78;29.98;;;16.60;90.10;;;;;;5133004;27;20099;-78
2023/06/22 03:14:36;;;;;;;69.47;27.55;;;16.50;90.30;;;;;;5104838;27;20042;-78
2023/06/22 03:17:03;;;;;;;114.00;31.95;;;16.50;90.40;;;;;;5099131;27;20043;-79
2023/06/22 03:19:31;;;;;;;76.30;30.58;;;16.50;90.40;;;;;;5111737;28;20040;-78
2023/06/22 03:21:57;;;;;;;69.25;27.35;;;16.50;90.60;;;;;;5133411;27;20052;-78
2023/06/22 03:24:23;;;;;;;65.47;27.13;;;16.50;90.50;;;;;;5133614;27;20035;-79
2023/06/22 03:26:49;;;;;;;28.50;18.80;;;16.50;90.40;;;;;;5133355;27;20100;-78
2023/06/22 03:29:15;;;;;;;59.65;24.52;;;16.50;90.30;;;;;;5133129;27;20043;-78
2023/06/22 03:31:41;;;;;;;71.68;22.95;;;16.50;90.30;;;;;;5133908;27;20111;-78
2023/06/22 03:34:07;;;;;;;111.40;29.80;;;16.40;90.30;;;;;;5113878;28;20031;-78
2023/06/22 03:36:32;;;;;;;50.42;24.65;;;16.40;90.30;;;;;;5132366;28;20031;-79
2023/06/22 03:38:58;;;;;;;54.30;21.02;;;16.40;90.40;;;;;;5099352;28;20067;-78
2023/06/22 03:41:24;;;;;;;56.28;24.02;;;16.50;90.30;;;;;;5116605;28;20104;-78
2023/06/22 03:43:49;;;;;;;38.30;19.88;;;16.50;90.20;;;;;;5082749;28;20130;-78
2023/06/22 03:46:15;;;;;;;128.18;34.47;;;16.50;90.30;;;;;;5115904;28;20137;-78
2023/06/22 03:48:41;;;;;;;66.20;30.52;;;16.50;90.30;;;;;;5113947;28;20039;-78
2023/06/22 03:51:06;;;;;;;192.50;43.92;;;16.50;90.30;;;;;;5081902;28;20483;-78
2023/06/22 03:53:32;;;;;;;175.70;45.15;;;16.50;90.50;;;;;;5115905;27;20107;-79
2023/06/22 03:55:58;;;;;;;126.63;40.28;;;16.50;90.90;;;;;;5119709;27;20126;-79
2023/06/22 03:58:23;;;;;;;84.43;34.65;;;16.50;91.00;;;;;;5120260;27;20043;-80
2023/06/22 04:00:51;;;;;;;40.67;32.72;;;16.50;91.00;;;;;;5103094;27;20453;-79
2023/06/22 04:03:20;;;;;;;101.63;40.47;;;16.50;91.30;;;;;;5117957;27;20043;-80
2023/06/22 04:05:46;;;;;;;47.67;33.78;;;16.50;91.30;;;;;;5137221;27;20115;-79
2023/06/22 04:08:13;;;;;;;51.38;33.60;;;16.60;91.50;;;;;;5137589;27;20554;-79
2023/06/22 04:10:39;;;;;;;33.17;30.05;;;16.60;91.40;;;;;;5117942;27;20411;-79
2023/06/22 04:13:05;;;;;;;64.90;37.63;;;16.60;91.50;;;;;;5136856;27;20038;-79
2023/06/22 04:15:30;;;;;;;37.67;33.85;;;16.60;91.30;;;;;;5136881;27;20042;-79
2023/06/22 04:17:57;;;;;;;36.88;33.08;;;16.60;91.40;;;;;;5133533;27;20039;-79
2023/06/22 04:20:25;;;;;;;33.88;30.65;;;16.60;91.40;;;;;;5101007;27;20409;-79
2023/06/22 04:22:52;;;;;;;23.95;21.80;;;16.70;91.50;;;;;;5136995;27;20078;-79
2023/06/22 04:25:22;;;;;;;32.13;28.92;;;16.60;91.40;;;;;;5120055;27;20043;-79
2023/06/22 04:27:48;;;;;;;28.73;25.92;;;16.70;91.30;;;;;;5102273;27;20563;-78
2023/06/22 04:30:17;;;;;;;31.13;28.27;;;16.70;91.40;;;;;;5136557;27;20432;-78
2023/06/22 04:32:44;;;;;;;29.77;26.95;;;16.70;91.30;;;;;;5084449;27;20057;-79
2023/06/22 04:35:11;;;;;;;31.75;28.85;;;16.70;91.20;;;;;;5102554;27;20039;-79
2023/06/22 04:37:36;;;;;;;27.35;24.95;;;16.70;91.10;;;;;;5137002;27;20150;-80
2023/06/22 04:40:04;;;;;;;25.13;22.90;;;16.70;91.20;;;;;;5102913;27;20035;-79
2023/06/22 04:42:30;;;;;;;20.60;18.70;;;16.70;91.20;;;;;;5120167;27;20034;-79
2023/06/22 04:44:56;;;;;;;24.40;22.33;;;16.80;91.00;;;;;;5103068;27;20079;-79
2023/06/22 04:47:21;;;;;;;23.17;21.13;;;16.80;91.00;;;;;;5100189;27;20531;-79
2023/06/22 04:49:47;;;;;;;27.08;24.73;;;16.90;90.90;;;;;;5102062;27;20038;-79
2023/06/22 04:52:17;;;;;;;23.48;21.55;;;16.80;90.80;;;;;;5139144;27;20084;-80
2023/06/22 04:54:47;;;;;;;14.25;12.98;;;16.90;90.70;;;;;;5121408;27;20391;-77
2023/06/22 04:57:13;;;;;;;26.05;23.83;;;16.90;90.60;;;;;;5137199;27;20507;-77
2023/06/22 04:59:41;;;;;;;26.90;24.52;;;17.00;90.40;;;;;;5137200;27;20043;-77
2023/06/22 05:02:07;;;;;;;26.08;23.83;;;17.00;90.30;;;;;;5133357;27;20394;-77
2023/06/22 05:04:35;;;;;;;17.20;15.68;;;17.00;90.30;;;;;;5106140;27;20049;-77
2023/06/22 05:07:02;;;;;;;29.58;26.90;;;17.00;90.30;;;;;;5125576;27;20105;-77
2023/06/22 05:09:29;;;;;;;29.35;26.73;;;17.00;90.30;;;;;;5125430;27;20031;-78
2023/06/22 05:11:56;;;;;;;32.42;29.40;;;17.00;90.40;;;;;;5131335;27;20044;-78
2023/06/22 05:14:25;;;;;;;31.30;28.27;;;17.10;90.40;;;;;;5110482;27;20092;-77
2023/06/22 05:16:51;;;;;;;27.83;25.20;;;17.10;90.30;;;;;;5107637;27;20421;-77
2023/06/22 05:19:17;;;;;;;27.05;24.30;;;17.20;90.40;;;;;;5121396;27;20097;-77
2023/06/22 05:21:43;;;;;;;35.58;32.08;;;17.20;90.30;;;;;;5114077;27;20039;-77
2023/06/22 05:24:09;;;;;;;35.13;31.42;;;17.30;90.30;;;;;;5143214;27;20039;-77
2023/06/22 05:26:35;;;;;;;33.42;29.98;;;17.40;90.60;;;;;;5126150;27;20034;-77
2023/06/22 05:29:02;;;;;;;27.77;25.05;;;17.50;90.40;;;;;;5143484;27;20035;-77
2023/06/22 05:31:29;;;;;;;23.10;20.83;;;17.50;90.20;;;;;;5153154;27;20057;-77
2023/06/22 05:33:55;;;;;;;34.72;31.10;;;17.70;90.10;;;;;;5144231;27;20032;-77
2023/06/22 05:36:24;;;;;;;29.52;25.75;;;17.80;89.90;;;;;;5101920;27;20095;-77
2023/06/22 05:38:51;;;;;;;33.92;30.35;;;17.90;89.90;;;;;;5135716;27;20039;-77
2023/06/22 05:41:17;;;;;;;29.77;26.65;;;18.00;89.70;;;;;;5104652;28;20126;-77
2023/06/22 05:43:43;;;;;;;32.47;29.05;;;18.00;89.60;;;;;;5115288;28;20078;-77
2023/06/22 05:46:09;;;;;;;32.20;28.77;;;18.10;89.50;;;;;;5115296;28;20059;-78
2023/06/22 05:48:34;;;;;;;47.75;31.27;;;18.20;89.40;;;;;;5097692;28;20036;-78
2023/06/22 05:51:00;;;;;;;25.60;21.75;;;18.20;89.40;;;;;;5097709;28;20040;-77
2023/06/22 05:53:26;;;;;;;26.60;23.77;;;18.30;89.30;;;;;;5097867;28;20034;-77
2023/06/22 05:55:51;;;;;;;31.15;27.80;;;18.40;89.10;;;;;;5097721;28;20036;-80
2023/06/22 05:58:17;;;;;;;34.65;30.30;;;18.50;89.00;;;;;;5101677;28;20035;-81
2023/06/22 06:00:43;;;;;;;35.13;31.33;;;18.50;88.90;;;;;;5099907;28;20057;-79
2023/06/22 06:03:10;;;;;;;36.90;31.33;;;18.60;89.00;;;;;;5100432;28;20051;-80
2023/06/22 06:05:36;;;;;;;33.72;30.08;;;18.60;89.10;;;;;;5121781;28;20040;-81
2023/06/22 06:08:04;;;;;;;33.63;30.05;;;18.70;89.10;;;;;;5089800;27;20100;-80
2023/06/22 06:10:31;;;;;;;34.92;30.98;;;18.80;89.10;;;;;;5102514;27;20036;-80
2023/06/22 06:12:57;;;;;;;37.22;33.33;;;18.80;89.30;;;;;;5120887;27;20046;-78
2023/06/22 06:15:23;;;;;;;32.97;29.17;;;18.90;89.30;;;;;;5127591;27;20608;-79
2023/06/22 06:17:50;;;;;;;32.58;28.65;;;18.90;89.30;;;;;;5108407;27;20047;-79
2023/06/22 06:20:20;;;;;;;38.17;32.67;;;19.00;89.10;;;;;;5092079;27;20074;-79
2023/06/22 06:22:46;;;;;;;36.15;30.52;;;19.00;89.10;;;;;;5104379;27;20038;-79
2023/06/22 06:25:15;;;;;;;36.38;32.55;;;19.10;89.10;;;;;;5106187;27;20103;-79
2023/06/22 06:27:49;;;;;;;36.88;32.50;;;19.10;89.10;;;;;;5098764;27;20074;-79
2023/06/22 06:30:17;;;;;;;29.35;26.35;;;19.10;89.10;;;;;;5096824;28;20116;-78
2023/06/22 06:32:45;;;;;;;27.27;24.38;;;19.20;89.20;;;;;;5098262;28;20383;-79
2023/06/22 06:35:11;;;;;;;31.50;28.13;;;19.30;89.20;;;;;;5097292;28;20038;-77
2023/06/22 06:37:42;;;;;;;32.67;29.20;;;19.40;89.00;;;;;;5114185;28;20066;-78
2023/06/22 06:40:12;;;;;;;35.30;31.58;;;19.40;88.80;;;;;;5097310;28;20130;-77
2023/06/22 06:42:44;;;;;;;36.58;32.65;;;19.50;88.70;;;;;;5114380;28;20047;-77
2023/06/22 06:45:25;;;;;;;28.88;25.88;;;19.60;88.60;;;;;;5098193;28;20046;-78
2023/06/22 06:47:53;;;;;;;28.38;25.25;;;19.50;88.50;;;;;;5114193;28;20039;-78
2023/06/22 06:50:19;;;;;;;35.58;31.10;;;19.60;88.30;;;;;;5085816;28;20040;-79
2023/06/22 06:52:45;;;;;;;34.70;31.00;;;19.70;88.20;;;;;;5102145;28;20499;-79
2023/06/22 06:55:14;;;;;;;31.15;27.85;;;19.70;88.20;;;;;;5117601;28;20543;-79
2023/06/22 06:57:41;;;;;;;32.42;28.33;;;19.70;88.10;;;;;;5081545;28;20044;-79
2023/06/22 07:00:13;;;;;;;25.20;22.60;;;19.80;87.90;;;;;;5100032;28;20039;-79
2023/06/22 07:02:40;;;;;;;30.35;27.15;;;19.90;87.80;;;;;;5102302;28;20051;-79
2023/06/22 07:05:06;;;;;;;33.10;29.58;;;19.90;87.50;;;;;;5117856;28;20051;-79
2023/06/22 07:07:32;;;;;;;39.47;28.95;;;20.00;87.40;;;;;;5115296;28;20108;-79
2023/06/22 07:09:58;;;;;;;30.17;26.98;;;20.10;87.20;;;;;;5096322;28;20035;-78
2023/06/22 07:12:24;;;;;;;28.13;25.40;;;20.20;87.00;;;;;;5062872;28;20038;-79
2023/06/22 07:14:50;;;;;;;30.77;27.63;;;20.30;86.40;;;;;;5114210;28;20099;-76
2023/06/22 07:17:15;;;;;;;28.77;25.73;;;20.40;86.10;;;;;;5098740;28;20047;-77
2023/06/22 07:19:42;;;;;;;32.15;28.95;;;20.40;85.80;;;;;;5102816;28;20040;-77
2023/06/22 07:22:08;;;;;;;30.27;27.17;;;20.50;85.40;;;;;;5103008;28;20121;-77
2023/06/22 07:24:34;;;;;;;27.52;24.73;;;20.60;85.20;;;;;;5100525;28;20475;-77
2023/06/22 07:27:00;;;;;;;23.98;21.65;;;20.70;84.70;;;;;;5098078;28;20071;-77
2023/06/22 07:29:26;;;;;;;25.45;22.88;;;20.80;84.40;;;;;;5095968;28;20094;-77
2023/06/22 07:31:52;;;;;;;24.45;20.73;;;20.90;84.20;;;;;;5114213;28;20039;-77
2023/06/22 07:34:18;;;;;;;23.05;20.70;;;20.90;83.80;;;;;;5113711;28;20545;-77
2023/06/22 07:36:45;;;;;;;24.88;20.50;;;21.00;83.50;;;;;;5113353;28;20357;-77
2023/06/22 07:39:12;;;;;;;24.48;21.88;;;21.10;83.10;;;;;;5112902;28;20040;-77
2023/06/22 07:41:40;;;;;;;20.98;18.83;;;21.30;82.70;;;;;;5096561;28;20488;-80
2023/06/22 07:44:07;;;;;;;19.95;17.58;;;21.40;82.60;;;;;;5113607;28;20118;-79
2023/06/22 07:46:33;;;;;;;20.17;18.10;;;21.40;81.60;;;;;;5095736;28;20042;-81
2023/06/22 07:48:59;;;;;;;19.00;16.73;;;21.50;81.20;;;;;;5096344;28;20381;-79
2023/06/22 07:51:25;;;;;;;21.63;19.45;;;21.50;80.60;;;;;;5095847;28;20043;-79
2023/06/22 07:53:51;;;;;;;21.38;19.02;;;21.70;81.00;;;;;;5096244;28;20032;-80
2023/06/22 07:56:18;;;;;;;20.95;18.05;;;21.80;81.00;;;;;;5095935;28;20373;-80
2023/06/22 07:58:45;;;;;;;18.65;16.75;;;21.90;80.90;;;;;;5096242;28;20559;-78
2023/06/22 08:01:12;;;;;;;22.92;19.63;;;22.00;80.70;;;;;;5112976;28;20044;-79
2023/06/22 08:03:39;;;;;;;20.38;18.27;;;22.10;80.40;;;;;;5078947;28;20047;-80
2023/06/22 08:06:05;;;;;;;23.73;21.27;;;22.30;80.30;;;;;;5096092;28;20040;-79
2023/06/22 08:08:31;;;;;;;22.77;20.30;;;22.40;79.90;;;;;;5095440;28;20044;-80
2023/06/22 08:10:57;;;;;;;19.30;16.65;;;22.50;79.50;;;;;;5111985;28;20042;-80
2023/06/22 08:13:22;;;;;;;17.10;15.27;;;22.60;79.50;;;;;;5112111;28;20040;-80
2023/06/22 08:15:49;;;;;;;15.02;13.48;;;22.70;78.70;;;;;;5095451;28;20042;-80
2023/06/22 08:18:14;;;;;;;17.92;14.88;;;22.80;78.00;;;;;;5095028;28;20487;-79
2023/06/22 08:20:40;;;;;;;16.13;14.40;;;22.90;77.90;;;;;;5095131;28;20042;-80
2023/06/22 08:23:06;;;;;;;16.08;14.35;;;22.90;77.60;;;;;;5061548;28;20480;-80
2023/06/22 08:25:35;;;;;;;15.20;13.70;;;23.00;76.70;;;;;;5095023;28;20043;-80
2023/06/22 08:28:05;;;;;;;14.85;13.02;;;23.00;75.30;;;;;;5111642;28;20056;-80
2023/06/22 08:30:30;;;;;;;14.65;13.15;;;23.10;75.20;;;;;;5094899;28;20109;-80
2023/06/22 08:32:56;;;;;;;11.77;10.57;;;23.30;75.50;;;;;;5111798;28;20036;-80
2023/06/22 08:35:24;;;;;;;13.50;12.18;;;23.20;74.40;;;;;;5095235;28;20028;-79
2023/06/22 08:37:55;;;;;;;14.20;12.82;;;23.40;74.70;;;;;;5094769;28;20050;-80
2023/06/22 08:40:21;;;;;;;15.35;13.82;;;23.40;73.20;;;;;;5112658;28;20048;-80
2023/06/22 08:42:48;;;;;;;12.95;11.73;;;23.50;73.60;;;;;;5098531;28;20040;-80
2023/06/22 08:45:14;;;;;;;14.95;13.45;;;23.50;73.10;;;;;;5115268;28;20043;-79
2023/06/22 08:47:41;;;;;;;15.45;13.23;;;23.70;73.40;;;;;;5115435;28;20479;-80
2023/06/22 08:50:08;;;;;;;14.77;13.27;;;23.80;73.40;;;;;;5099194;28;20036;-80
2023/06/22 08:52:34;;;;;;;13.90;12.50;;;23.90;72.10;;;;;;5081952;28;20497;-80
2023/06/22 08:55:00;;;;;;;15.13;13.68;;;24.00;71.60;;;;;;5098656;28;20058;-80
2023/06/22 08:57:27;;;;;;;14.30;12.35;;;24.10;71.00;;;;;;5115048;28;20043;-80
2023/06/22 08:59:53;;;;;;;15.15;13.52;;;24.20;69.20;;;;;;5115034;28;20089;-79
2023/06/22 09:02:19;;;;;;;12.95;11.40;;;24.20;70.10;;;;;;5115130;28;20043;-80
2023/06/22 09:04:49;;;;;;;13.93;12.20;;;24.30;70.30;;;;;;5115501;28;20045;-79
2023/06/22 09:07:22;;;;;;;14.93;13.35;;;24.50;70.10;;;;;;5115369;28;20050;-80
2023/06/22 09:09:47;;;;;;;17.45;15.70;;;24.60;70.10;;;;;;5066695;28;20588;-80
2023/06/22 09:12:13;;;;;;;15.85;14.25;;;24.60;69.60;;;;;;5065092;28;20051;-79
2023/06/22 09:14:39;;;;;;;15.07;13.38;;;24.70;69.90;;;;;;5081533;28;20550;-79
2023/06/22 09:17:05;;;;;;;14.48;12.65;;;24.80;69.20;;;;;;5098502;28;20039;-79
2023/06/22 09:19:30;;;;;;;12.23;9.98;;;24.90;69.20;;;;;;5081319;28;20040;-78
2023/06/22 09:21:56;;;;;;;11.95;10.07;;;25.00;68.50;;;;;;5098112;28;20027;-79
2023/06/22 09:24:22;;;;;;;13.18;11.55;;;25.20;68.10;;;;;;5093293;27;20042;-80
2023/06/22 09:26:47;;;;;;;14.25;12.20;;;25.40;67.60;;;;;;5119715;27;20043;-81
2023/06/22 09:29:13;;;;;;;12.80;11.15;;;25.40;67.20;;;;;;5086313;27;20062;-81
2023/06/22 09:31:39;;;;;;;15.52;13.88;;;25.50;66.50;;;;;;5100604;27;20403;-81
2023/06/22 09:34:05;;;;;;;13.43;12.13;;;25.60;66.30;;;;;;5104236;27;20502;-81
2023/06/22 09:36:30;;;;;;;12.50;11.18;;;25.80;65.70;;;;;;5084556;27;20051;-79
2023/06/22 09:38:58;;;;;;;13.00;11.38;;;25.90;65.30;;;;;;5101653;27;20131;-80
2023/06/22 09:41:24;;;;;;;10.48;9.27;;;25.90;65.60;;;;;;5118266;27;20092;-80
2023/06/22 09:43:50;;;;;;;12.73;10.38;;;26.10;64.20;;;;;;5118429;27;20036;-80
2023/06/22 09:46:17;;;;;;;14.48;12.90;;;26.10;64.00;;;;;;5118417;27;20037;-79
2023/06/22 09:48:43;;;;;;;12.70;11.43;;;26.20;63.30;;;;;;5134967;27;20075;-78
2023/06/22 09:51:08;;;;;;;15.60;13.35;;;26.20;63.40;;;;;;5117911;27;20046;-78
2023/06/22 09:53:34;;;;;;;13.65;12.25;;;26.20;63.10;;;;;;5117181;27;20494;-78
2023/06/22 09:56:01;;;;;;;15.90;14.20;;;26.30;63.50;;;;;;5117795;27;20121;-79
2023/06/22 09:58:27;;;;;;;12.90;11.13;;;26.50;63.80;;;;;;5117966;27;20035;-78
2023/06/22 10:00:54;;;;;;;14.25;12.30;;;26.60;63.70;;;;;;5117910;27;20095;-77
2023/06/22 10:03:20;;;;;;;13.93;11.80;;;26.70;62.80;;;;;;5117780;27;20047;-78
2023/06/22 10:05:46;;;;;;;7.88;6.65;;;26.80;62.20;;;;;;5100922;27;20043;-78
2023/06/22 10:08:11;;;;;;;9.00;6.68;;;26.90;61.70;;;;;;5117998;27;20388;-78
2023/06/22 10:10:37;;;;;;;13.27;11.98;;;27.00;60.00;;;;;;5134620;27;20039;-78
2023/06/22 10:13:11;;;;;;;12.23;10.40;;;27.00;59.30;;;;;;5117578;27;20117;-78
2023/06/22 10:15:38;;;;;;;11.43;10.30;;;27.10;59.60;;;;;;5117955;27;20046;-78
2023/06/22 10:18:03;;;;;;;10.90;9.80;;;27.10;59.70;;;;;;5117521;27;20043;-78
2023/06/22 10:20:30;;;;;;;12.15;8.48;;;27.20;59.30;;;;;;5134691;27;20513;-78
2023/06/22 10:22:55;;;;;;;10.73;8.77;;;27.40;59.20;;;;;;5101041;27;20392;-78
2023/06/22 10:25:22;;;;;;;10.50;9.45;;;27.40;58.40;;;;;;5100870;27;20072;-78
2023/06/22 10:27:47;;;;;;;8.60;7.50;;;27.50;58.20;;;;;;5134490;27;20084;-78
2023/06/22 10:30:13;;;;;;;6.80;5.95;;;27.50;57.50;;;;;;5134680;27;20035;-79
2023/06/22 10:32:40;;;;;;;12.27;9.90;;;27.70;57.80;;;;;;5134672;27;20046;-78
2023/06/22 10:35:06;;;;;;;10.02;8.63;;;27.70;53.70;;;;;;5117348;27;20452;-78
2023/06/22 10:37:32;;;;;;;9.93;8.93;;;27.80;56.70;;;;;;5134546;27;20045;-79
2023/06/22 10:39:57;;;;;;;9.18;8.27;;;27.90;56.70;;;;;;5100639;27;20042;-79
2023/06/22 10:42:23;;;;;;;8.27;7.55;;;28.00;56.70;;;;;;5134464;27;20054;-79
2023/06/22 10:44:49;;;;;;;11.57;10.38;;;28.10;56.20;;;;;;5100521;27;20464;-79
2023/06/22 10:47:15;;;;;;;10.07;7.55;;;28.00;55.70;;;;;;5134783;27;20474;-79
2023/06/22 10:49:41;;;;;;;9.57;8.60;;;28.00;55.90;;;;;;5134932;27;20038;-78
2023/06/22 10:52:07;;;;;;;8.30;7.50;;;28.00;54.20;;;;;;5117727;27;20130;-79
2023/06/22 10:54:35;;;;;;;9.32;7.13;;;28.00;54.20;;;;;;5100215;27;20062;-78
2023/06/22 10:57:01;;;;;;;7.53;5.95;;;28.10;55.30;;;;;;5117090;27;20085;-79
2023/06/22 10:59:28;;;;;;;7.75;5.95;;;28.20;53.10;;;;;;5134306;27;20125;-79
2023/06/22 11:01:55;;;;;;;8.70;7.78;;;28.20;53.40;;;;;;5117362;27;20489;-78
2023/06/22 11:04:20;;;;;;;10.27;8.57;;;28.30;53.50;;;;;;5116071;27;20035;-79
2023/06/22 11:06:47;;;;;;;8.23;7.43;;;28.40;53.20;;;;;;5117144;27;20061;-79
2023/06/22 11:09:18;;;;;;;7.72;7.03;;;28.40;53.80;;;;;;5116557;27;20051;-78
2023/06/22 11:11:44;;;;;;;6.82;6.15;;;28.50;52.10;;;;;;5133180;27;20512;-78
2023/06/22 11:14:10;;;;;;;9.13;7.97;;;28.60;52.70;;;;;;5099075;27;20050;-78
2023/06/22 11:16:35;;;;;;;9.25;7.07;;;28.80;53.00;;;;;;5098984;27;20031;-79
2023/06/22 11:19:03;;;;;;;8.65;7.70;;;28.90;52.90;;;;;;5133152;27;20039;-78
2023/06/22 11:21:28;;;;;;;8.35;7.45;;;28.90;53.30;;;;;;5116756;27;20530;-79
2023/06/22 11:23:54;;;;;;;9.25;7.40;;;29.00;53.50;;;;;;5116459;27;20046;-79
2023/06/22 11:26:21;;;;;;;9.20;7.35;;;28.80;52.60;;;;;;5116341;27;20070;-79
2023/06/22 11:28:47;;;;;;;8.00;7.15;;;28.90;52.90;;;;;;5133622;27;20407;-79
2023/06/22 11:31:12;;;;;;;9.13;7.85;;;28.80;53.50;;;;;;5116411;27;20042;-79
2023/06/22 11:33:38;;;;;;;8.90;7.68;;;28.90;53.80;;;;;;5133344;27;20256;-79
2023/06/22 11:36:04;;;;;;;8.07;6.13;;;28.90;53.30;;;;;;5133197;27;20121;-79
2023/06/22 11:38:30;;;;;;;7.22;6.28;;;29.00;53.20;;;;;;5082029;28;20069;-79
2023/06/22 11:41:00;;;;;;;9.70;7.10;;;29.10;52.90;;;;;;5098806;28;20039;-79
2023/06/22 11:43:26;;;;;;;9.07;7.90;;;29.20;53.00;;;;;;5115642;28;20504;-78
2023/06/22 11:45:51;;;;;;;8.82;6.60;;;29.10;52.90;;;;;;5115679;28;20081;-78
2023/06/22 11:48:17;;;;;;;6.18;5.50;;;29.10;53.80;;;;;;5126162;28;20082;-78
2023/06/22 11:50:43;;;;;;;7.07;6.13;;;29.30;54.30;;;;;;5115156;28;20046;-78
2023/06/22 11:53:08;;;;;;;7.72;6.70;;;29.30;53.90;;;;;;5132993;28;20069;-81
2023/06/22 11:55:36;;;;;;;8.40;7.40;;;29.30;53.40;;;;;;5098853;28;20125;-80
2023/06/22 11:58:03;;;;;;;8.48;5.70;;;29.20;53.30;;;;;;5083185;28;20130;-80
2023/06/22 12:00:29;;;;;;;7.70;6.75;;;28.90;54.40;;;;;;5099604;28;20066;-80
2023/06/22 12:02:55;;;;;;;8.45;6.95;;;28.90;55.10;;;;;;5116309;28;20039;-80
2023/06/22 12:05:22;;;;;;;7.40;6.22;;;28.80;54.50;;;;;;5133371;28;20574;-80
2023/06/22 12:07:48;;;;;;;9.25;6.05;;;28.60;55.20;;;;;;5133221;28;20047;-77
2023/06/22 12:10:15;;;;;;;8.45;6.03;;;28.50;54.70;;;;;;5099052;28;20479;-79
2023/06/22 12:12:50;;;;;;;8.00;6.15;;;28.30;55.20;;;;;;5133412;28;20038;-79
2023/06/22 12:15:16;;;;;;;6.40;5.70;;;28.20;54.90;;;;;;5116898;27;20039;-76
2023/06/22 12:17:41;;;;;;;6.05;4.82;;;28.00;55.80;;;;;;5137829;27;20047;-76
2023/06/22 12:20:08;;;;;;;6.60;5.80;;;27.90;56.30;;;;;;5102876;27;20042;-77
2023/06/22 12:22:34;;;;;;;6.40;5.80;;;27.70;56.20;;;;;;5137051;27;20035;-79
2023/06/22 12:25:00;;;;;;;6.50;5.90;;;27.50;55.70;;;;;;5137092;27;20367;-78
2023/06/22 12:27:26;;;;;;;5.38;4.88;;;27.30;57.10;;;;;;5136776;27;20468;-80
2023/06/22 12:29:52;;;;;;;5.72;4.50;;;27.20;57.40;;;;;;5102768;27;20079;-77